Blagoevgrad, Bulgaria
Current Conditions -  °F | °C
As of 7:00 AM on Thursday 23 Oct 2014 (Local Time) from LBSF Reporting Station
Drizzle Drizzle  
Wind Chill: 35°   Ceiling: 1300
Heat Index: 41°   Visibility: 6mi
Dew Point: 39°   Wind: 9mph
Humidity: 93%   Direction: 270°W
Pressure: 29.56"   Gusts: NA
Location:  42.03°N, 23.09°E
Report Text: LBSF 230400Z 27004MPS 240V300 9999 DZ BKN013 OVC020 05/04 Q1001 TEMPO 5000 SHRA SCT030CB
Loading
Personal Weather Stations






























Interactive Weather Map
Tropical Storm Tracking
New forecast layout! Learn more

10-Day Weather Forecast

Advertisements
Track Severe Weather on mobile